Time;durP1;ratioP1;P1;durP2;ratioP2;P2;SDS_P1;SDS_P2;PMS_P1;PMS_P2;Temp;Humidity;BMP_temperature;BMP_pressure;BME280_temperature;BME280_humidity;BME280_pressure;Samples;Min_cycle;Max_cycle;Signal;HPM_P1;HPM_P2
2021/05/25 00:01:41;;;;;;;2.63;2.27;;;;;;;17.82;33.19;100476.16;4962505;28;99063;-71
2021/05/25 00:04:10;;;;;;;2.75;2.40;;;;;;;17.81;33.27;100481.56;4963830;28;98985;-72
2021/05/25 00:06:37;;;;;;;3.67;2.10;;;;;;;17.78;33.31;100490.56;4963758;28;97306;-73
2021/05/25 00:09:07;;;;;;;2.65;2.15;;;;;;;17.80;33.18;100488.75;4963231;28;97691;-73
2021/05/25 00:11:35;;;;;;;2.75;2.10;;;;;;;17.78;33.26;100484.31;4962755;28;98193;-73
2021/05/25 00:14:04;;;;;;;2.75;1.98;;;;;;;17.79;33.20;100483.38;4961417;28;97769;-72
2021/05/25 00:16:33;;;;;;;3.03;2.33;;;;;;;17.78;33.09;100487.00;4962656;28;97024;-71
2021/05/25 00:19:01;;;;;;;3.40;2.15;;;;;;;17.76;33.30;100478.06;4963607;28;97218;-72
2021/05/25 00:21:29;;;;;;;2.70;2.35;;;;;;;17.68;33.21;100478.16;4964659;28;98992;-72
2021/05/25 00:23:57;;;;;;;3.75;2.40;;;;;;;17.65;33.45;100478.19;4965985;28;97706;-73
2021/05/25 00:26:26;;;;;;;2.30;2.10;;;;;;;17.65;33.11;100488.06;4966094;28;97671;-72
2021/05/25 00:28:54;;;;;;;3.10;2.80;;;;;;;17.66;33.22;100488.03;4964702;28;97034;-73
2021/05/25 00:31:22;;;;;;;2.35;2.17;;;;;;;17.66;33.15;100488.03;4964691;28;98183;-73
2021/05/25 00:33:51;;;;;;;2.20;1.98;;;;;;;17.66;33.15;100479.97;4962058;28;98127;-72
2021/05/25 00:36:20;;;;;;;4.32;2.15;;;;;;;17.63;33.06;100477.31;4963045;28;97194;-72
2021/05/25 00:38:48;;;;;;;3.20;2.20;;;;;;;17.64;33.24;100473.69;4961992;28;97716;-72
2021/05/25 00:41:15;;;;;;;2.30;2.10;;;;;;;17.62;33.25;100464.75;4960199;28;97161;-72
2021/05/25 00:43:43;;;;;;;2.28;2.08;;;;;;;17.64;33.17;100470.13;4961105;28;98950;-72
2021/05/25 00:46:11;;;;;;;2.30;2.07;;;;;;;17.65;33.05;100471.91;4962536;28;97348;-72
2021/05/25 00:48:39;;;;;;;2.75;2.33;;;;;;;17.66;33.03;100476.38;4962551;28;96997;-72
2021/05/25 00:51:08;;;;;;;2.60;2.40;;;;;;;17.65;33.02;100464.75;4962658;28;97817;-71
2021/05/25 00:53:36;;;;;;;2.73;2.37;;;;;;;17.63;32.96;100469.25;4962291;28;98085;-71
2021/05/25 00:56:04;;;;;;;6.20;2.50;;;;;;;17.52;33.22;100465.78;4961902;28;97153;-72
2021/05/25 00:58:34;;;;;;;3.25;2.70;;;;;;;17.51;33.29;100480.13;4963405;28;97589;-72
2021/05/25 01:01:04;;;;;;;3.93;2.53;;;;;;;17.51;33.45;100476.59;4962645;28;101876;-72
2021/05/25 01:03:31;;;;;;;3.20;2.63;;;;;;;17.51;33.39;100485.53;4961580;28;99643;-71
2021/05/25 01:05:59;;;;;;;2.50;2.30;;;;;;;17.43;33.29;100487.44;4962438;28;96730;-72
2021/05/25 01:08:28;;;;;;;3.40;2.63;;;;;;;17.41;33.26;100485.66;4961652;28;97110;-72
2021/05/25 01:11:01;;;;;;;4.25;2.60;;;;;;;17.40;33.29;100479.38;4961979;28;97384;-73
2021/05/25 01:13:30;;;;;;;2.70;2.50;;;;;;;17.31;33.48;100474.06;4962619;28;97516;-71
2021/05/25 01:15:58;;;;;;;2.80;2.60;;;;;;;17.30;33.52;100471.41;4961404;28;97820;-72
2021/05/25 01:18:26;;;;;;;2.80;2.60;;;;;;;17.26;33.26;100473.25;4961864;28;97360;-72
2021/05/25 01:20:54;;;;;;;3.00;2.80;;;;;;;17.25;33.32;100486.72;4961171;28;97883;-71
2021/05/25 01:23:23;;;;;;;2.60;2.40;;;;;;;17.20;33.37;100486.75;4962086;28;98230;-72
2021/05/25 01:25:51;;;;;;;3.00;2.70;;;;;;;17.19;33.68;100476.91;4962204;28;97328;-72
2021/05/25 01:28:21;;;;;;;2.63;2.42;;;;;;;17.17;33.58;100476.03;4962269;28;97475;-72
2021/05/25 01:30:50;;;;;;;2.67;2.47;;;;;;;17.14;33.58;100470.69;4961426;28;100618;-72
2021/05/25 01:33:20;;;;;;;2.67;2.45;;;;;;;17.15;33.55;100459.03;4961511;28;97755;-72
2021/05/25 01:35:48;;;;;;;2.35;2.20;;;;;;;17.12;33.51;100459.06;4962844;28;96894;-72
2021/05/25 01:38:16;;;;;;;2.75;2.55;;;;;;;17.06;33.05;100461.81;4963873;28;96890;-72
2021/05/25 01:40:45;;;;;;;2.38;2.00;;;;;;;16.93;33.41;100470.91;4962734;28;98799;-72
2021/05/25 01:43:14;;;;;;;2.05;1.95;;;;;;;16.85;33.49;100470.09;4963014;28;97448;-72
2021/05/25 01:45:42;;;;;;;2.00;2.00;;;;;;;16.78;32.93;100463.88;4964055;28;97497;-72
2021/05/25 01:48:11;;;;;;;2.50;2.30;;;;;;;16.73;33.36;100454.97;4964389;28;96938;-72
2021/05/25 01:50:40;;;;;;;2.20;2.10;;;;;;;16.66;33.15;100458.59;4962705;28;99059;-71
2021/05/25 01:53:10;;;;;;;2.03;1.92;;;;;;;16.59;33.06;100456.84;4962202;28;97737;-70
2021/05/25 01:55:39;;;;;;;3.80;3.10;;;;;;;16.54;33.16;100458.66;4961938;28;97755;-71
2021/05/25 01:58:10;;;;;;;2.22;2.13;;;;;;;16.50;33.20;100456.03;4963542;28;97664;-70
2021/05/25 02:00:40;;;;;;;2.10;2.00;;;;;;;16.42;32.88;100453.41;4961345;28;99024;-70
2021/05/25 02:03:09;;;;;;;1.83;1.80;;;;;;;16.35;33.20;100450.78;4961990;28;98308;-71
2021/05/25 02:05:38;;;;;;;2.50;2.17;;;;;;;16.29;33.20;100459.78;4961102;28;97993;-70
2021/05/25 02:08:07;;;;;;;4.38;1.98;;;;;;;16.15;33.08;100468.84;4960456;28;98342;-71
2021/05/25 02:10:36;;;;;;;2.35;2.10;;;;;;;16.04;33.08;100477.84;4961305;28;98667;-71
2021/05/25 02:13:05;;;;;;;2.60;2.05;;;;;;;15.94;33.34;100483.25;4962238;28;98535;-71
2021/05/25 02:15:35;;;;;;;2.30;2.03;;;;;;;15.85;33.25;100484.19;4962590;28;97958;-70
2021/05/25 02:18:07;;;;;;;2.10;2.00;;;;;;;15.79;33.11;100486.91;4962556;28;97530;-71
2021/05/25 02:20:35;;;;;;;2.20;2.00;;;;;;;15.79;33.22;100496.75;4961916;28;98136;-71
2021/05/25 02:23:04;;;;;;;1.80;1.73;;;;;;;15.76;33.37;100496.75;4963129;28;97790;-71
2021/05/25 02:25:32;;;;;;;2.17;1.95;;;;;;;15.74;33.01;100494.06;4962110;28;96898;-71
2021/05/25 02:28:02;;;;;;;1.90;1.80;;;;;;;15.70;33.32;100505.72;4961764;28;96866;-71
2021/05/25 02:30:31;;;;;;;1.95;1.83;;;;;;;15.63;33.14;100498.59;4962527;28;98090;-71
2021/05/25 02:33:01;;;;;;;2.70;1.90;;;;;;;15.54;33.15;100501.31;4963290;28;98775;-71
2021/05/25 02:35:29;;;;;;;2.10;2.00;;;;;;;15.44;33.20;100493.31;4961062;28;96789;-71
2021/05/25 02:37:57;;;;;;;2.05;1.95;;;;;;;15.35;33.22;100494.25;4963061;28;96680;-71
2021/05/25 02:40:25;;;;;;;2.00;1.90;;;;;;;15.31;33.19;100484.41;4961155;28;99512;-71
2021/05/25 02:42:54;;;;;;;2.75;2.00;;;;;;;15.24;33.24;100479.94;4961600;28;98389;-71
2021/05/25 02:45:22;;;;;;;2.10;2.00;;;;;;;15.16;33.29;100480.84;4962086;28;96895;-71
2021/05/25 02:47:50;;;;;;;2.47;1.80;;;;;;;15.05;33.32;100486.22;4963158;28;96835;-71
2021/05/25 02:50:19;;;;;;;2.00;1.90;;;;;;;14.98;33.18;100498.75;4962806;28;97292;-72
2021/05/25 02:52:50;;;;;;;2.03;1.92;;;;;;;14.88;33.29;100496.94;4961174;28;98947;-71
2021/05/25 02:55:20;;;;;;;2.40;2.30;;;;;;;14.75;33.24;100499.66;4962548;28;97191;-70
2021/05/25 02:57:48;;;;;;;1.88;1.80;;;;;;;14.62;33.34;100487.16;4961455;28;97516;-70
2021/05/25 03:00:18;;;;;;;1.90;1.90;;;;;;;14.50;33.31;100488.00;4960671;28;98947;-71
2021/05/25 03:02:46;;;;;;;2.15;2.10;;;;;;;14.45;33.40;100483.53;4963976;28;98228;-70
2021/05/25 03:05:15;;;;;;;2.42;2.22;;;;;;;14.37;33.53;100498.72;4962849;28;96827;-71
2021/05/25 03:07:46;;;;;;;2.13;1.92;;;;;;;14.33;33.50;100494.25;4963591;28;97329;-71
2021/05/25 03:10:17;;;;;;;3.70;1.90;;;;;;;14.29;33.32;100505.84;4963581;28;98913;-71
2021/05/25 03:12:45;;;;;;;1.90;1.85;;;;;;;14.22;33.25;100501.38;4965869;28;97844;-71
2021/05/25 03:15:15;;;;;;;2.10;2.00;;;;;;;14.17;33.41;100504.91;4963599;28;96995;-71
2021/05/25 03:17:43;;;;;;;3.47;2.20;;;;;;;14.13;33.37;100505.78;4965095;28;96813;-71
2021/05/25 03:20:13;;;;;;;1.83;1.83;;;;;;;14.07;33.47;100504.91;4964047;28;99339;-71
2021/05/25 03:22:42;;;;;;;1.98;1.88;;;;;;;14.04;33.38;100508.47;4966092;28;99058;-72
2021/05/25 03:25:14;;;;;;;2.60;2.17;;;;;;;14.01;33.46;100508.47;4966489;28;96751;-71
2021/05/25 03:27:42;;;;;;;3.55;2.95;;;;;;;13.98;33.54;100507.56;4967983;28;98139;-71
2021/05/25 03:30:13;;;;;;;2.60;2.40;;;;;;;13.99;34.06;100514.69;4965507;28;102744;-71
2021/05/25 03:32:40;;;;;;;2.22;2.03;;;;;;;14.01;33.88;100520.94;4965456;28;97766;-72
2021/05/25 03:35:10;;;;;;;2.35;1.90;;;;;;;13.99;33.62;100536.09;4963895;28;97229;-70
2021/05/25 03:37:38;;;;;;;2.15;1.95;;;;;;;13.92;33.71;100528.94;4965676;28;97460;-70
2021/05/25 03:40:08;;;;;;;2.15;1.90;;;;;;;13.86;33.80;100526.25;4962858;28;97220;-71
2021/05/25 03:42:36;;;;;;;2.00;2.00;;;;;;;13.81;33.80;100515.53;4962537;28;101742;-70
2021/05/25 03:45:07;;;;;;;2.72;2.53;;;;;;;13.76;34.45;100527.97;4963682;28;97434;-70
2021/05/25 03:47:34;;;;;;;2.30;2.20;;;;;;;13.72;34.24;100514.56;4961043;28;97058;-70
2021/05/25 03:50:07;;;;;;;2.35;2.25;;;;;;;13.71;34.63;100535.06;4962975;28;97641;-70
2021/05/25 03:52:36;;;;;;;1.80;1.80;;;;;;;13.71;34.20;100540.44;4962479;28;97931;-70
2021/05/25 03:55:12;;;;;;;3.90;2.28;;;;;;;13.67;34.23;100541.28;4964595;28;97158;-70
2021/05/25 04:00:28;;;;;;;2.00;1.95;;;;;;;13.64;34.27;100529.69;4962600;28;97929;-70
2021/05/25 04:02:58;;;;;;;2.53;2.30;;;;;;;13.61;34.61;100535.00;4962844;28;99020;-71
2021/05/25 04:05:26;;;;;;;2.45;2.25;;;;;;;13.63;34.31;100530.56;4959723;28;97107;-72
2021/05/25 04:07:54;;;;;;;2.25;2.00;;;;;;;13.57;34.23;100523.41;4959997;28;97417;-71
2021/05/25 04:10:22;;;;;;;2.05;1.95;;;;;;;13.54;34.10;100522.50;4962480;28;99319;-71
2021/05/25 04:12:51;;;;;;;1.90;1.80;;;;;;;13.45;34.07;100542.06;4961012;28;97796;-71
2021/05/25 04:15:19;;;;;;;2.33;2.22;;;;;;;13.44;34.39;100534.91;4961217;28;97171;-71
2021/05/25 04:17:47;;;;;;;2.00;1.90;;;;;;;13.47;34.09;100528.69;4963758;28;97133;-71
2021/05/25 04:20:15;;;;;;;1.85;1.85;;;;;;;13.42;34.03;100528.69;4962598;28;97905;-71
2021/05/25 04:22:43;;;;;;;1.90;1.80;;;;;;;13.36;34.36;100530.41;4965575;28;98927;-71
2021/05/25 04:25:13;;;;;;;2.47;2.28;;;;;;;13.38;34.47;100526.88;4965106;28;97679;-71
2021/05/25 04:27:41;;;;;;;2.03;1.92;;;;;;;13.42;34.02;100520.69;4965692;28;97003;-72
2021/05/25 04:30:11;;;;;;;1.80;1.80;;;;;;;13.37;33.99;100521.53;4963529;28;98062;-72
2021/05/25 04:32:39;;;;;;;2.55;2.42;;;;;;;13.29;34.56;100518.81;4962075;28;97812;-72
2021/05/25 04:35:08;;;;;;;1.90;1.80;;;;;;;13.30;34.10;100528.59;4964518;28;96741;-71
2021/05/25 04:37:36;;;;;;;1.95;1.85;;;;;;;13.22;34.10;100538.38;4962230;28;97387;-71
2021/05/25 04:40:05;;;;;;;2.20;2.10;;;;;;;13.24;34.10;100531.22;4961946;28;96923;-72
2021/05/25 04:42:36;;;;;;;2.17;2.13;;;;;;;13.18;34.57;100532.09;4955998;28;97423;-71
2021/05/25 04:45:07;;;;;;;1.98;1.88;;;;;;;13.15;34.19;100557.88;4960913;28;97739;-72
2021/05/25 04:47:36;;;;;;;1.92;1.75;;;;;;;13.12;34.29;100552.53;4961538;28;96878;-72
2021/05/25 04:50:05;;;;;;;2.03;1.92;;;;;;;13.05;34.26;100556.06;4954920;28;98840;-72
2021/05/25 04:52:33;;;;;;;1.63;1.63;;;;;;;13.02;34.14;100540.00;4963216;28;97815;-72
2021/05/25 04:55:03;;;;;;;2.50;2.30;;;;;;;12.99;34.56;100566.63;4959876;28;97415;-72
2021/05/25 04:57:31;;;;;;;1.90;1.80;;;;;;;13.01;34.37;100567.59;4963918;28;96793;-72
2021/05/25 04:59:59;;;;;;;2.90;2.00;;;;;;;12.94;34.08;100571.97;4962887;28;98443;-71
2021/05/25 05:02:27;;;;;;;2.38;1.65;;;;;;;12.90;33.97;100578.16;4962793;28;97783;-71
2021/05/25 05:04:56;;;;;;;1.85;1.85;;;;;;;12.85;34.03;100579.91;4961180;28;97793;-73
2021/05/25 05:07:24;;;;;;;2.60;1.83;;;;;;;12.87;33.91;100582.59;4962586;28;97299;-72
2021/05/25 05:09:51;;;;;;;1.52;1.52;;;;;;;12.79;34.00;100590.53;4961696;28;98495;-72
2021/05/25 05:12:19;;;;;;;1.88;1.77;;;;;;;12.72;33.86;100593.13;4961850;28;97888;-72
2021/05/25 05:14:47;;;;;;;2.10;2.00;;;;;;;12.68;33.95;100596.63;4961878;28;97025;-73
2021/05/25 05:17:15;;;;;;;1.90;1.90;;;;;;;12.63;33.95;100601.03;4963536;28;96902;-72
2021/05/25 05:19:43;;;;;;;1.50;1.50;;;;;;;12.60;33.67;100604.56;4961797;28;100837;-72
2021/05/25 05:22:12;;;;;;;1.63;1.63;;;;;;;12.60;33.77;100599.22;4962137;28;99362;-72
2021/05/25 05:24:40;;;;;;;1.77;1.70;;;;;;;12.62;33.72;100601.94;4963619;28;96890;-72
2021/05/25 05:27:08;;;;;;;2.10;1.90;;;;;;;12.57;33.69;100599.19;4963733;28;97596;-73
2021/05/25 05:29:35;;;;;;;2.10;1.95;;;;;;;12.53;33.77;100613.38;4976905;28;101090;-71
2021/05/25 05:32:03;;;;;;;2.20;2.10;;;;;;;12.51;33.90;100606.25;4962573;28;97450;-73
2021/05/25 05:34:31;;;;;;;1.80;1.80;;;;;;;12.55;33.69;100606.28;4963887;28;97397;-73
2021/05/25 05:36:59;;;;;;;1.70;1.70;;;;;;;12.58;33.37;100616.13;4962982;28;96948;-72
2021/05/25 05:39:27;;;;;;;1.83;1.83;;;;;;;12.53;33.52;100617.84;4961736;28;98025;-73
2021/05/25 05:41:55;;;;;;;1.85;1.75;;;;;;;12.47;33.46;100616.03;4963314;28;97815;-72
2021/05/25 05:44:23;;;;;;;1.98;1.88;;;;;;;12.43;33.39;100622.19;4963978;28;97181;-73
2021/05/25 05:46:51;;;;;;;2.47;1.80;;;;;;;12.35;33.66;100614.97;4963142;28;97928;-73
2021/05/25 05:49:22;;;;;;;5.93;1.83;;;;;;;12.33;33.57;100608.75;4963044;28;97934;-73
2021/05/25 05:51:50;;;;;;;1.92;1.83;;;;;;;12.39;33.44;100614.13;4963373;28;97024;-71
2021/05/25 05:54:18;;;;;;;2.22;2.10;;;;;;;12.40;33.46;100621.25;4963497;28;96827;-72
2021/05/25 05:56:47;;;;;;;1.70;1.70;;;;;;;12.42;33.35;100630.19;4962496;28;97010;-72
2021/05/25 05:59:17;;;;;;;1.70;1.60;;;;;;;12.44;33.31;100631.06;4963252;28;101188;-71
2021/05/25 06:01:45;;;;;;;1.95;1.85;;;;;;;12.42;33.32;100630.19;4962992;28;99231;-72
2021/05/25 06:04:13;;;;;;;2.13;1.85;;;;;;;12.42;33.35;100632.84;4962341;28;97543;-72
2021/05/25 06:06:41;;;;;;;2.00;1.95;;;;;;;12.43;33.23;100653.31;4963125;28;96914;-71
2021/05/25 06:09:09;;;;;;;1.90;1.80;;;;;;;12.45;33.16;100656.91;4962744;28;98112;-71
2021/05/25 06:11:37;;;;;;;1.95;1.80;;;;;;;12.46;33.10;100661.34;4963399;28;97994;-72
2021/05/25 06:14:06;;;;;;;2.60;1.80;;;;;;;12.47;33.33;100663.16;4962781;28;97252;-71
2021/05/25 06:16:35;;;;;;;2.42;1.92;;;;;;;12.50;33.03;100650.72;4962995;28;97139;-72
2021/05/25 06:19:03;;;;;;;2.17;1.90;;;;;;;12.55;32.91;100662.34;4962380;28;100053;-71
2021/05/25 06:21:31;;;;;;;2.28;1.90;;;;;;;12.51;33.12;100663.19;4962145;28;98645;-72
2021/05/25 06:23:59;;;;;;;1.90;1.90;;;;;;;12.51;33.04;100655.19;4962866;28;96935;-71
2021/05/25 06:26:26;;;;;;;1.52;1.52;;;;;;;12.56;32.96;100660.59;4963406;28;97460;-72
2021/05/25 06:28:54;;;;;;;1.80;1.70;;;;;;;12.57;32.80;100659.69;4965049;28;97717;-72
2021/05/25 06:31:23;;;;;;;1.60;1.60;;;;;;;12.60;32.67;100651.75;4962766;28;97879;-71
2021/05/25 06:33:51;;;;;;;2.28;2.17;;;;;;;12.61;32.59;100649.06;4963278;28;96816;-73
2021/05/25 06:36:19;;;;;;;1.75;1.73;;;;;;;12.67;32.83;100646.47;4962722;28;97126;-72
2021/05/25 06:38:46;;;;;;;1.95;1.95;;;;;;;12.73;32.66;100643.84;4962351;28;97957;-71
2021/05/25 06:41:14;;;;;;;2.17;2.08;;;;;;;12.80;32.57;100647.50;4963003;28;98918;-72
2021/05/25 06:43:42;;;;;;;3.10;2.30;;;;;;;12.84;32.43;100651.97;4964594;28;97224;-71
2021/05/25 06:46:10;;;;;;;1.80;1.70;;;;;;;12.90;32.29;100644.03;4965333;28;96864;-72
2021/05/25 06:48:38;;;;;;;2.97;1.90;;;;;;;12.90;32.15;100630.66;4964876;28;97863;-72
2021/05/25 06:51:07;;;;;;;1.92;1.92;;;;;;;12.95;32.28;100642.28;4966326;28;99278;-71
2021/05/25 06:53:35;;;;;;;2.00;1.90;;;;;;;13.00;32.12;100649.50;4964816;28;97177;-73
2021/05/25 06:56:05;;;;;;;1.65;1.65;;;;;;;13.07;32.18;100642.44;4964162;28;97954;-72
2021/05/25 06:58:33;;;;;;;1.70;1.60;;;;;;;13.09;31.94;100641.56;4965331;28;97428;-72
2021/05/25 07:01:01;;;;;;;2.38;1.90;;;;;;;13.13;31.97;100637.13;4965650;28;97822;-72
2021/05/25 07:03:29;;;;;;;1.90;1.80;;;;;;;13.17;31.86;100647.88;4965697;28;97437;-71
2021/05/25 07:06:02;;;;;;;1.75;1.75;;;;;;;13.20;31.50;100655.03;4963176;28;97778;-71
2021/05/25 07:08:30;;;;;;;1.40;1.40;;;;;;;13.19;31.59;100642.53;4965305;28;97545;-73
2021/05/25 07:10:57;;;;;;;2.17;1.63;;;;;;;13.15;31.57;100641.63;4966291;28;97674;-72
2021/05/25 07:13:25;;;;;;;2.22;1.65;;;;;;;13.12;31.51;100646.03;4964895;28;97969;-72
2021/05/25 07:15:53;;;;;;;2.85;1.80;;;;;;;13.12;31.43;100638.03;4964737;28;97299;-72
2021/05/25 07:18:21;;;;;;;2.15;1.70;;;;;;;13.15;31.31;100638.03;4965446;28;98922;-72
2021/05/25 07:20:49;;;;;;;1.77;1.77;;;;;;;13.19;31.25;100634.53;4964564;28;98945;-72
2021/05/25 07:23:18;;;;;;;1.67;1.42;;;;;;;13.21;31.30;100640.78;4963951;28;97384;-72
2021/05/25 07:25:45;;;;;;;1.60;1.50;;;;;;;13.27;31.10;100647.94;4963846;28;97676;-72
2021/05/25 07:28:14;;;;;;;1.88;1.73;;;;;;;13.29;30.99;100641.75;4965607;28;98292;-72
2021/05/25 07:30:43;;;;;;;1.50;1.50;;;;;;;13.30;31.01;100638.16;4965020;28;99663;-72
2021/05/25 07:33:12;;;;;;;1.60;1.60;;;;;;;13.29;31.05;100633.72;4964116;28;97590;-73
2021/05/25 07:35:39;;;;;;;1.60;1.60;;;;;;;13.32;30.97;100631.06;4965869;28;97562;-71
2021/05/25 07:38:07;;;;;;;1.50;1.50;;;;;;;13.34;31.00;100663.13;4965097;28;97835;-72
2021/05/25 07:40:35;;;;;;;2.70;2.50;;;;;;;13.31;30.95;100649.75;4964197;28;98374;-72
2021/05/25 07:43:03;;;;;;;2.60;2.45;;;;;;;13.29;30.99;100647.09;4964323;28;97954;-72
2021/05/25 07:45:31;;;;;;;1.50;1.50;;;;;;;13.23;30.89;100647.03;4965216;28;97176;-70
2021/05/25 07:47:59;;;;;;;1.80;1.63;;;;;;;13.18;31.16;100656.78;4964904;28;96984;-70
2021/05/25 07:50:27;;;;;;;1.50;1.50;;;;;;;13.17;31.23;100657.66;4962522;28;99735;-70
2021/05/25 07:52:56;;;;;;;2.25;1.38;;;;;;;13.15;31.19;100660.31;4965574;28;96931;-70
2021/05/25 07:55:26;;;;;;;1.30;1.30;;;;;;;13.13;31.26;100664.75;4964236;28;97312;-71
2021/05/25 07:57:55;;;;;;;2.35;1.40;;;;;;;13.14;31.13;100663.88;4964707;28;100300;-70
2021/05/25 08:00:24;;;;;;;1.60;1.50;;;;;;;13.11;31.22;100653.16;4964476;28;97773;-73
2021/05/25 08:02:52;;;;;;;1.50;1.50;;;;;;;13.11;30.94;100654.94;4964868;28;97068;-71
2021/05/25 08:05:20;;;;;;;1.60;1.50;;;;;;;13.13;31.03;100661.19;4964054;28;97225;-72
2021/05/25 08:07:48;;;;;;;1.45;1.45;;;;;;;13.15;31.21;100659.41;4964429;28;101518;-72
2021/05/25 08:10:16;;;;;;;1.48;1.48;;;;;;;13.15;31.14;100654.97;4963702;28;98102;-70
2021/05/25 08:12:44;;;;;;;1.95;1.60;;;;;;;13.17;31.28;100663.00;4963850;28;97754;-72
2021/05/25 08:15:16;;;;;;;1.50;1.50;;;;;;;13.17;31.20;100669.25;4963934;28;97747;-71
2021/05/25 08:17:51;;;;;;;1.70;1.70;;;;;;;13.09;31.28;100676.28;4963485;28;97816;-71
2021/05/25 08:20:20;;;;;;;1.50;1.50;;;;;;;13.03;31.36;100668.25;4964307;28;97846;-71
2021/05/25 08:23:10;;;;;;;1.58;1.50;;;;;;;13.04;31.36;100663.75;4963372;28;96903;-72
2021/05/25 08:25:40;;;;;;;1.50;1.50;;;;;;;13.05;31.37;100665.56;4963289;28;96852;-72
2021/05/25 08:28:08;;;;;;;1.80;1.70;;;;;;;13.07;31.32;100663.81;4963005;28;98987;-72
2021/05/25 08:30:40;;;;;;;1.52;1.52;;;;;;;13.04;31.27;100655.75;4963343;28;98987;-73
2021/05/25 08:33:11;;;;;;;1.50;1.50;;;;;;;13.05;31.30;100652.22;4978209;28;97372;-72
2021/05/25 08:35:41;;;;;;;1.60;1.50;;;;;;;13.11;31.23;100660.31;4964202;28;96979;-71
2021/05/25 08:38:11;;;;;;;1.50;1.50;;;;;;;13.16;31.17;100655.88;4964472;28;97824;-72
2021/05/25 08:40:39;;;;;;;1.67;1.67;;;;;;;13.22;31.20;100649.69;4962748;28;97803;-71
2021/05/25 08:43:07;;;;;;;2.20;1.63;;;;;;;13.29;31.01;100668.47;4963318;28;97780;-72
2021/05/25 08:45:34;;;;;;;3.80;1.60;;;;;;;13.34;31.16;100665.81;4962991;28;97781;-73
2021/05/25 08:48:04;;;;;;;1.50;1.50;;;;;;;13.37;30.86;100672.06;4963866;28;97015;-72
2021/05/25 08:50:50;;;;;;;1.42;1.42;;;;;;;13.43;30.69;100665.88;4963287;28;97782;-72
2021/05/25 08:53:18;;;;;;;1.63;1.45;;;;;;;13.45;30.68;100667.69;4963961;28;97845;-72
2021/05/25 08:55:47;;;;;;;2.17;1.80;;;;;;;13.49;30.70;100682.88;4963528;28;96821;-71
2021/05/25 08:58:15;;;;;;;2.55;1.40;;;;;;;13.52;30.67;100672.19;4962816;28;98965;-72
2021/05/25 09:00:43;;;;;;;1.77;1.50;;;;;;;13.59;30.42;100682.06;4964128;28;99781;-73
2021/05/25 09:03:15;;;;;;;1.50;1.50;;;;;;;13.61;30.40;100672.28;4962557;28;97450;-74
2021/05/25 09:05:48;;;;;;;2.70;2.47;;;;;;;13.63;30.13;100681.19;4963927;28;97724;-72
2021/05/25 09:08:16;;;;;;;1.45;1.42;;;;;;;13.65;30.29;100684.78;4962863;28;97508;-73
2021/05/25 09:10:46;;;;;;;1.65;1.60;;;;;;;13.71;30.27;100711.56;4961397;28;96871;-73
2021/05/25 09:13:16;;;;;;;1.92;1.50;;;;;;;13.70;30.10;100690.16;4963303;28;97494;-72
2021/05/25 09:15:45;;;;;;;1.48;1.48;;;;;;;13.63;30.27;100686.53;4962846;28;96974;-71
2021/05/25 09:18:16;;;;;;;2.47;1.40;;;;;;;13.57;30.17;100715.91;4963515;28;97808;-72
2021/05/25 09:20:46;;;;;;;2.88;1.33;;;;;;;13.51;29.94;100709.63;4962343;28;97365;-72
2021/05/25 09:23:16;;;;;;;1.38;1.30;;;;;;;13.50;30.00;100692.69;4963203;28;97717;-73
2021/05/25 09:25:51;;;;;;;1.60;1.60;;;;;;;13.50;30.04;100710.50;4962230;28;97711;-72
2021/05/25 09:28:19;;;;;;;1.90;1.67;;;;;;;13.49;30.08;100716.72;4963724;28;101104;-72
2021/05/25 09:30:48;;;;;;;1.55;1.45;;;;;;;13.45;30.07;100697.09;4962864;28;100012;-73
2021/05/25 09:33:17;;;;;;;1.80;1.63;;;;;;;13.46;29.91;100698.88;4962745;28;96886;-72
2021/05/25 09:35:47;;;;;;;1.65;1.55;;;;;;;13.48;29.86;100709.56;4963097;28;97668;-72
2021/05/25 09:38:16;;;;;;;1.20;1.20;;;;;;;13.42;29.88;100691.75;4964789;28;97817;-72
2021/05/25 09:40:46;;;;;;;1.58;1.55;;;;;;;13.43;29.88;100685.50;4964481;28;98982;-72
2021/05/25 09:43:16;;;;;;;1.98;1.80;;;;;;;13.48;29.91;100686.41;4962649;28;97437;-73
2021/05/25 09:46:01;;;;;;;1.58;1.58;;;;;;;13.51;29.62;100723.00;4964073;28;97537;-73
2021/05/25 09:48:31;;;;;;;1.60;1.60;;;;;;;13.51;29.58;100688.25;4962234;28;97877;-72
2021/05/25 09:50:59;;;;;;;3.83;1.85;;;;;;;13.52;29.76;100682.00;4962919;28;99470;-72
2021/05/25 09:53:30;;;;;;;1.45;1.45;;;;;;;13.54;29.71;100681.13;4961618;28;97900;-72
2021/05/25 09:56:00;;;;;;;1.70;1.60;;;;;;;13.61;29.74;100682.97;4979289;28;97462;-73
2021/05/25 09:58:38;;;;;;;3.60;2.08;;;;;;;13.60;29.39;100689.22;4962360;28;99269;-72
2021/05/25 10:01:07;;;;;;;1.60;1.60;;;;;;;13.66;29.57;100696.38;4962758;28;97910;-72
2021/05/25 10:03:44;;;;;;;1.48;1.48;;;;;;;13.68;29.26;100662.50;4963158;28;97189;-73
2021/05/25 10:06:12;;;;;;;1.83;1.73;;;;;;;13.76;29.51;100688.44;4978336;28;97671;-71
2021/05/25 10:08:43;;;;;;;1.65;1.60;;;;;;;13.80;29.54;100674.22;4961532;28;98288;-73
2021/05/25 10:11:11;;;;;;;1.50;1.50;;;;;;;13.85;29.39;100675.16;4963123;28;97756;-72
2021/05/25 10:13:39;;;;;;;1.70;1.70;;;;;;;13.89;29.34;100662.69;4961614;28;97371;-72
2021/05/25 10:16:08;;;;;;;1.48;1.45;;;;;;;13.95;29.46;100663.59;4963988;28;97405;-72
2021/05/25 10:18:49;;;;;;;1.63;1.50;;;;;;;14.01;29.28;100662.72;4963727;28;98187;-72
2021/05/25 10:21:18;;;;;;;1.30;1.30;;;;;;;14.09;29.19;100661.91;4966459;28;98662;-72
2021/05/25 10:23:46;;;;;;;1.40;1.40;;;;;;;14.13;29.00;100660.13;4966726;28;97737;-72
2021/05/25 10:26:16;;;;;;;1.42;1.42;;;;;;;14.17;29.20;100677.97;4964450;28;99533;-72
2021/05/25 10:28:48;;;;;;;1.60;1.52;;;;;;;14.23;28.96;100655.69;4965477;28;98976;-72
2021/05/25 10:31:30;;;;;;;1.33;1.30;;;;;;;14.33;28.99;100658.44;4966260;28;99007;-72
2021/05/25 10:34:15;;;;;;;4.47;3.25;;;;;;;14.41;28.88;100653.97;4966375;28;97335;-72
2021/05/25 10:36:45;;;;;;;1.50;1.50;;;;;;;14.41;28.96;100647.75;4965287;28;97234;-73
2021/05/25 10:39:34;;;;;;;1.90;1.85;;;;;;;14.52;28.57;100659.38;4965977;28;99204;-72
2021/05/25 10:42:28;;;;;;;1.50;1.40;;;;;;;14.53;28.91;100647.78;4964226;28;98173;-72
2021/05/25 10:45:17;;;;;;;1.70;1.50;;;;;;;14.54;28.37;100644.22;4965101;28;96809;-74
2021/05/25 10:48:00;;;;;;;2.23;1.50;;;;;;;14.67;28.15;100630.91;4965102;28;97646;-72
2021/05/25 10:50:32;;;;;;;1.70;1.33;;;;;;;14.79;27.74;100632.72;4963852;28;97855;-72
2021/05/25 10:53:23;;;;;;;1.20;1.20;;;;;;;14.89;27.48;100637.19;4963856;28;98672;-72
2021/05/25 10:55:51;;;;;;;1.20;1.20;;;;;;;14.94;27.19;100635.38;4964075;28;97613;-73
2021/05/25 10:58:30;;;;;;;1.27;1.17;;;;;;;14.96;27.54;100645.22;4966244;28;97051;-71
2021/05/25 11:01:01;;;;;;;1.60;1.50;;;;;;;14.96;27.49;100679.16;4965121;28;97007;-72
2021/05/25 11:03:29;;;;;;;3.42;1.05;;;;;;;14.84;27.89;100687.19;4962879;28;100371;-72
2021/05/25 11:05:57;;;;;;;3.22;1.38;;;;;;;14.72;27.85;100671.06;4965976;28;97228;-72
2021/05/25 11:08:43;;;;;;;1.33;1.23;;;;;;;14.62;28.30;100685.34;4965011;28;97101;-72
2021/05/25 11:11:28;;;;;;;1.95;1.20;;;;;;;14.43;29.49;100688.78;4965394;28;97872;-72
2021/05/25 11:13:57;;;;;;;1.23;1.23;;;;;;;14.24;30.64;100695.88;4964963;28;97871;-72
2021/05/25 11:16:36;;;;;;;1.58;1.15;;;;;;;14.10;31.20;100705.59;4963553;28;96897;-72
2021/05/25 11:19:33;;;;;;;2.40;1.27;;;;;;;13.99;31.59;100701.97;4963667;28;97630;-73
2021/05/25 11:25:01;;;;;;;1.00;1.00;;;;;;;13.94;32.10;100693.91;4964451;28;97743;-72
2021/05/25 11:27:33;;;;;;;1.00;1.00;;;;;;;13.98;32.45;100679.69;4963987;28;98111;-73
2021/05/25 11:30:07;;;;;;;1.27;1.17;;;;;;;14.09;32.90;100674.38;4962572;28;97297;-72
2021/05/25 11:32:39;;;;;;;1.52;1.00;;;;;;;14.27;32.74;100681.59;4963402;28;97887;-72
2021/05/25 11:35:08;;;;;;;1.40;1.00;;;;;;;14.43;32.67;100664.69;4964758;28;97833;-72
2021/05/25 11:37:38;;;;;;;1.33;1.33;;;;;;;14.60;32.19;100676.41;4962435;28;97780;-71
2021/05/25 11:40:09;;;;;;;1.40;1.40;;;;;;;14.66;31.65;100665.72;4963612;28;96939;-73
2021/05/25 11:42:37;;;;;;;1.20;1.20;;;;;;;14.71;31.83;100658.56;4964067;28;97675;-72